Time;durP1;ratioP1;P1;durP2;ratioP2;P2;SDS_P1;SDS_P2;PMS_P1;PMS_P2;Temp;Humidity;BMP_temperature;BMP_pressure;BME280_temperature;BME280_humidity;BME280_pressure;Samples;Min_cycle;Max_cycle;Signal;HPM_P1;HPM_P2
2021/04/02 00:00:17;;;;;;;15.83;6.63;;;5.90;99.90;;;;;;5015798;28;20256;-77
2021/04/02 00:02:43;;;;;;;14.63;7.32;;;5.90;99.90;;;;;;5016027;28;20472;-77
2021/04/02 00:05:13;;;;;;;14.53;8.10;;;5.80;99.90;;;;;;5015311;28;20577;-77
2021/04/02 00:07:38;;;;;;;12.57;7.45;;;5.70;99.90;;;;;;5015501;28;20175;-78
2021/04/02 00:10:16;;;;;;;12.40;7.77;;;5.70;99.90;;;;;;5015479;28;20668;-77
2021/04/02 00:12:42;;;;;;;14.95;8.45;;;5.70;99.90;;;;;;5030734;28;20558;-77
2021/04/02 00:15:15;;;;;;;12.17;7.87;;;5.70;99.90;;;;;;4997579;28;20277;-77
2021/04/02 00:17:40;;;;;;;13.88;7.40;;;5.70;99.90;;;;;;5015170;28;20217;-78
2021/04/02 00:20:08;;;;;;;19.17;8.00;;;5.60;99.90;;;;;;5015329;28;20175;-77
2021/04/02 00:22:34;;;;;;;20.30;9.73;;;5.50;99.90;;;;;;5015435;28;20424;-78
2021/04/02 00:25:00;;;;;;;14.00;7.80;;;5.50;99.90;;;;;;5014975;28;20175;-78
2021/04/02 00:27:25;;;;;;;11.90;8.30;;;5.40;99.90;;;;;;5015665;28;20414;-77
2021/04/02 00:29:51;;;;;;;13.13;8.10;;;5.40;99.90;;;;;;5014062;28;20618;-78
2021/04/02 00:32:17;;;;;;;13.63;7.70;;;5.30;99.90;;;;;;5015161;28;20214;-77
2021/04/02 00:34:42;;;;;;;11.17;8.20;;;5.20;99.90;;;;;;5014885;28;20171;-77
2021/04/02 00:37:08;;;;;;;12.50;7.50;;;5.10;99.90;;;;;;5013786;28;20191;-78
2021/04/02 00:39:34;;;;;;;18.77;9.43;;;5.10;99.90;;;;;;5015244;28;20665;-77
2021/04/02 00:42:00;;;;;;;10.90;7.97;;;5.10;99.90;;;;;;5013786;28;20189;-78
2021/04/02 00:44:27;;;;;;;13.20;7.90;;;5.10;99.90;;;;;;5013843;28;20186;-78
2021/04/02 00:46:53;;;;;;;17.55;9.02;;;5.10;99.90;;;;;;5014658;28;20203;-77
2021/04/02 00:49:18;;;;;;;12.30;8.33;;;5.20;99.90;;;;;;5013606;28;20568;-78
2021/04/02 00:51:44;;;;;;;16.70;10.43;;;5.20;99.90;;;;;;5013782;28;20665;-78
2021/04/02 00:54:09;;;;;;;27.20;8.57;;;5.20;99.90;;;;;;5014690;28;20179;-78
2021/04/02 00:56:35;;;;;;;16.00;8.63;;;5.30;99.90;;;;;;5013486;28;20256;-78
2021/04/02 00:59:00;;;;;;;13.50;7.40;;;5.40;99.90;;;;;;5014827;28;20628;-78
2021/04/02 01:01:26;;;;;;;13.67;8.57;;;5.40;99.90;;;;;;5014746;28;20577;-78
2021/04/02 01:03:54;;;;;;;12.83;9.40;;;5.40;99.90;;;;;;5014588;28;20651;-78
2021/04/02 01:06:26;;;;;;;12.13;8.55;;;5.50;99.90;;;;;;5014160;28;20562;-77
2021/04/02 01:08:52;;;;;;;12.88;8.07;;;5.60;99.90;;;;;;5014673;28;20635;-77
2021/04/02 01:11:19;;;;;;;15.40;9.63;;;5.60;99.90;;;;;;5013218;28;20198;-78
2021/04/02 01:13:47;;;;;;;17.70;9.88;;;5.80;99.90;;;;;;5014478;28;20179;-78
2021/04/02 01:16:21;;;;;;;15.98;9.80;;;5.80;99.90;;;;;;5013734;28;20559;-78
2021/04/02 01:19:14;;;;;;;15.18;9.88;;;5.70;99.90;;;;;;5014338;28;20265;-78
2021/04/02 01:22:04;;;;;;;14.45;9.48;;;5.70;99.90;;;;;;5014405;28;20178;-77
2021/04/02 01:24:56;;;;;;;19.88;9.38;;;5.70;99.90;;;;;;5029326;28;20221;-80
2021/04/02 01:27:42;;;;;;;16.27;10.32;;;5.70;99.90;;;;;;5014234;28;20201;-77
2021/04/02 01:30:11;;;;;;;12.50;9.82;;;5.80;99.90;;;;;;5012328;28;20635;-78
2021/04/02 01:32:40;;;;;;;16.85;10.65;;;5.70;99.90;;;;;;5013940;28;20218;-78
2021/04/02 01:35:16;;;;;;;16.58;10.00;;;5.60;99.90;;;;;;5013612;28;20167;-77
2021/04/02 01:37:54;;;;;;;17.45;10.02;;;5.60;99.90;;;;;;5014161;28;20523;-78
2021/04/02 01:40:23;;;;;;;19.05;9.63;;;5.40;99.90;;;;;;5013920;28;20174;-77
2021/04/02 01:42:50;;;;;;;20.00;10.30;;;5.40;99.90;;;;;;5014062;28;20191;-78
2021/04/02 01:45:18;;;;;;;18.35;9.93;;;5.40;99.90;;;;;;5013741;28;20246;-78
2021/04/02 01:47:44;;;;;;;16.60;11.20;;;5.40;99.90;;;;;;5013917;28;20314;-78
2021/04/02 01:50:16;;;;;;;24.42;10.68;;;5.40;99.90;;;;;;5012947;28;20270;-78
2021/04/02 01:52:43;;;;;;;18.92;11.13;;;5.40;99.90;;;;;;5013741;28;20605;-78
2021/04/02 01:55:12;;;;;;;16.67;10.27;;;5.40;99.90;;;;;;5013307;28;20171;-77
2021/04/02 01:57:39;;;;;;;16.83;9.95;;;5.30;99.90;;;;;;5013659;28;20178;-78
2021/04/02 02:00:23;;;;;;;24.52;10.43;;;5.20;99.90;;;;;;5013672;28;20194;-77
2021/04/02 02:02:55;;;;;;;24.30;12.30;;;5.10;99.90;;;;;;5013597;28;20174;-78
2021/04/02 02:05:21;;;;;;;18.30;10.68;;;5.00;99.90;;;;;;5013259;28;20250;-78
2021/04/02 02:07:48;;;;;;;23.00;9.23;;;4.90;99.90;;;;;;5013648;28;20191;-78
2021/04/02 02:10:17;;;;;;;20.80;10.70;;;4.90;99.90;;;;;;5012347;28;20452;-77
2021/04/02 02:12:45;;;;;;;15.27;11.35;;;4.90;99.90;;;;;;5013189;28;20210;-78
2021/04/02 02:15:13;;;;;;;24.00;12.60;;;4.80;99.90;;;;;;5013170;28;20178;-77
2021/04/02 02:17:44;;;;;;;20.52;11.07;;;4.80;99.90;;;;;;5013500;28;20179;-78
2021/04/02 02:20:11;;;;;;;20.63;12.55;;;4.70;99.90;;;;;;5013558;28;20250;-77
2021/04/02 02:22:38;;;;;;;18.48;11.18;;;4.70;99.90;;;;;;5013299;28;20186;-79
2021/04/02 02:25:06;;;;;;;19.67;11.18;;;4.60;99.90;;;;;;5011794;28;20178;-78
2021/04/02 02:27:32;;;;;;;19.35;11.73;;;4.60;99.90;;;;;;5013443;28;20178;-78
2021/04/02 02:29:58;;;;;;;24.90;12.30;;;4.50;99.90;;;;;;5013319;28;20179;-78
2021/04/02 02:32:24;;;;;;;16.13;11.13;;;4.50;99.90;;;;;;5013165;28;20690;-77
2021/04/02 02:34:50;;;;;;;22.90;12.57;;;4.40;99.90;;;;;;5011746;28;20213;-79
2021/04/02 02:37:16;;;;;;;19.33;12.13;;;4.40;99.90;;;;;;5013154;28;20465;-78
2021/04/02 02:39:42;;;;;;;23.55;13.82;;;4.40;99.90;;;;;;5013210;28;20179;-77
2021/04/02 02:42:08;;;;;;;24.63;13.93;;;4.40;99.90;;;;;;5015524;28;20554;-78
2021/04/02 02:44:35;;;;;;;26.00;13.40;;;4.30;99.90;;;;;;5015850;28;20293;-78
2021/04/02 02:47:05;;;;;;;28.45;14.05;;;4.30;99.90;;;;;;5017069;28;20210;-78
2021/04/02 02:49:32;;;;;;;20.35;13.45;;;4.20;99.90;;;;;;5016055;28;20591;-78
2021/04/02 02:51:59;;;;;;;25.15;13.75;;;4.20;99.90;;;;;;5016994;28;20223;-78
2021/04/02 02:54:27;;;;;;;21.85;14.20;;;4.20;99.90;;;;;;5016970;28;20178;-78
2021/04/02 02:56:55;;;;;;;20.63;13.63;;;4.20;99.90;;;;;;5016876;28;20191;-78
2021/04/02 02:59:24;;;;;;;27.33;13.90;;;4.10;99.90;;;;;;5017069;28;20257;-78
2021/04/02 03:01:51;;;;;;;24.13;13.77;;;4.10;99.90;;;;;;5016897;28;20541;-78
2021/04/02 03:04:19;;;;;;;26.98;13.38;;;4.10;99.90;;;;;;5016963;28;20186;-78
2021/04/02 03:06:46;;;;;;;18.85;12.65;;;4.00;99.90;;;;;;5016420;28;20230;-77
2021/04/02 03:09:15;;;;;;;20.70;13.40;;;4.00;99.90;;;;;;5016686;28;20273;-77
2021/04/02 03:11:45;;;;;;;25.48;14.05;;;4.00;99.90;;;;;;5016806;28;20270;-78
2021/04/02 03:14:22;;;;;;;24.55;14.88;;;4.00;99.90;;;;;;5016658;28;20535;-78
2021/04/02 03:16:50;;;;;;;26.70;14.77;;;3.90;99.90;;;;;;5016681;28;20205;-78
2021/04/02 03:19:19;;;;;;;22.05;15.02;;;3.90;99.90;;;;;;5016437;28;20175;-78
2021/04/02 03:21:47;;;;;;;24.13;13.68;;;3.90;99.90;;;;;;5015315;28;20189;-78
2021/04/02 03:24:13;;;;;;;21.85;12.90;;;3.90;99.90;;;;;;5016527;28;20640;-78
2021/04/02 03:26:43;;;;;;;21.83;13.10;;;3.90;99.90;;;;;;5016331;28;20264;-78
2021/04/02 03:29:12;;;;;;;21.88;14.18;;;4.00;99.90;;;;;;5015030;28;20236;-77
2021/04/02 03:31:39;;;;;;;25.13;15.15;;;4.00;99.90;;;;;;5016336;28;20268;-77
2021/04/02 03:34:09;;;;;;;22.40;14.07;;;4.10;99.90;;;;;;5015179;28;20175;-77
2021/04/02 03:36:37;;;;;;;20.92;13.63;;;4.10;99.90;;;;;;5014655;28;20282;-77
2021/04/02 03:39:07;;;;;;;24.40;15.10;;;4.20;99.90;;;;;;5014840;28;20186;-78
2021/04/02 03:41:33;;;;;;;25.52;15.45;;;4.20;99.90;;;;;;5016225;28;20560;-78
2021/04/02 03:44:00;;;;;;;22.40;15.45;;;4.20;99.90;;;;;;5016230;28;20527;-78
2021/04/02 03:46:28;;;;;;;24.27;15.93;;;4.30;99.90;;;;;;5015892;28;20202;-77
2021/04/02 03:48:57;;;;;;;23.10;14.65;;;4.30;99.90;;;;;;5016314;28;20258;-77
2021/04/02 03:51:25;;;;;;;26.35;16.73;;;4.30;99.90;;;;;;5016021;28;20297;-77
2021/04/02 03:53:57;;;;;;;25.80;16.35;;;4.30;99.90;;;;;;5015346;28;20252;-78
2021/04/02 03:56:28;;;;;;;24.10;17.38;;;4.40;99.90;;;;;;5015595;28;20183;-77
2021/04/02 03:58:56;;;;;;;23.10;15.93;;;4.40;99.90;;;;;;5016014;28;20185;-77
2021/04/02 04:01:31;;;;;;;22.75;16.02;;;4.50;99.90;;;;;;5015850;28;20171;-78
2021/04/02 04:03:59;;;;;;;26.92;16.20;;;4.60;99.90;;;;;;5015899;28;20186;-77
2021/04/02 04:06:26;;;;;;;27.30;16.60;;;4.60;99.90;;;;;;5015345;28;20191;-78
2021/04/02 04:08:58;;;;;;;23.60;15.88;;;4.60;99.90;;;;;;5014624;28;20171;-77
2021/04/02 04:11:27;;;;;;;27.92;17.35;;;4.60;99.90;;;;;;5015518;28;20191;-79
2021/04/02 04:13:54;;;;;;;21.00;15.75;;;4.60;99.90;;;;;;5015588;28;20647;-77
2021/04/02 04:16:23;;;;;;;26.02;17.17;;;4.70;99.90;;;;;;5015151;28;20568;-77
2021/04/02 04:18:54;;;;;;;21.45;15.80;;;4.70;99.90;;;;;;5015402;28;20225;-78
2021/04/02 04:21:22;;;;;;;27.23;16.95;;;4.70;99.90;;;;;;5015494;28;20190;-78
2021/04/02 04:23:49;;;;;;;32.90;16.40;;;4.70;99.90;;;;;;5015279;28;20190;-77
2021/04/02 04:26:16;;;;;;;27.50;17.80;;;4.80;99.90;;;;;;5014904;28;20558;-77
2021/04/02 04:28:45;;;;;;;25.88;18.60;;;4.80;99.90;;;;;;5015328;28;20179;-78
2021/04/02 04:31:10;;;;;;;26.83;16.42;;;4.90;99.90;;;;;;5014985;28;20210;-77
2021/04/02 04:33:38;;;;;;;31.17;18.70;;;4.90;99.90;;;;;;5015049;28;20189;-78
2021/04/02 04:36:07;;;;;;;29.40;17.42;;;5.00;99.90;;;;;;5014637;28;20203;-78
2021/04/02 04:38:35;;;;;;;21.80;16.33;;;5.00;99.90;;;;;;5013865;28;20650;-77
2021/04/02 04:41:02;;;;;;;25.50;17.50;;;5.00;99.90;;;;;;5014175;28;20187;-77
2021/04/02 04:43:31;;;;;;;25.00;16.60;;;5.00;99.90;;;;;;5015262;28;20585;-77
2021/04/02 04:45:56;;;;;;;22.40;16.60;;;5.00;99.90;;;;;;5014366;28;20189;-77
2021/04/02 04:48:22;;;;;;;21.43;16.20;;;4.90;99.90;;;;;;5015033;28;20604;-78
2021/04/02 04:50:48;;;;;;;23.30;15.17;;;4.70;99.90;;;;;;5014719;28;20505;-78
2021/04/02 04:53:25;;;;;;;27.83;15.10;;;4.60;99.90;;;;;;5014892;28;20178;-77
2021/04/02 04:55:53;;;;;;;23.65;15.25;;;4.60;99.90;;;;;;5013030;28;20670;-78
2021/04/02 04:58:21;;;;;;;23.50;14.48;;;4.50;99.90;;;;;;5014733;28;20224;-78
2021/04/02 05:00:48;;;;;;;29.73;16.35;;;4.50;99.90;;;;;;5013480;28;20185;-76
2021/04/02 05:03:21;;;;;;;25.05;15.23;;;4.50;99.90;;;;;;5014466;28;20260;-78
2021/04/02 05:05:51;;;;;;;24.30;15.40;;;4.40;99.90;;;;;;5013505;28;20335;-77
2021/04/02 05:08:48;;;;;;;24.00;15.25;;;4.40;99.90;;;;;;5014478;28;20197;-75
2021/04/02 05:11:19;;;;;;;25.20;15.32;;;4.40;99.90;;;;;;5012306;28;20253;-78
2021/04/02 05:13:46;;;;;;;27.88;16.30;;;4.40;99.90;;;;;;5014372;28;20186;-78
2021/04/02 05:16:13;;;;;;;25.38;14.82;;;4.30;99.90;;;;;;5013832;28;20285;-77
2021/04/02 05:18:39;;;;;;;24.88;15.95;;;4.30;99.90;;;;;;5013035;28;20183;-77
2021/04/02 05:21:06;;;;;;;27.85;16.02;;;4.20;99.90;;;;;;5014293;28;20175;-77
2021/04/02 05:23:32;;;;;;;24.23;15.52;;;4.10;99.90;;;;;;5012926;28;20175;-77
2021/04/02 05:25:57;;;;;;;24.77;15.57;;;4.10;99.90;;;;;;5013656;28;20206;-78
2021/04/02 05:28:23;;;;;;;26.23;16.20;;;4.10;99.90;;;;;;5014063;28;20182;-77
2021/04/02 05:30:50;;;;;;;26.80;17.37;;;4.00;99.90;;;;;;5014202;28;20406;-78
2021/04/02 05:33:16;;;;;;;30.92;17.42;;;4.00;99.90;;;;;;5013996;28;20468;-77
2021/04/02 05:35:42;;;;;;;28.23;16.00;;;4.00;99.90;;;;;;5013647;28;20226;-77
2021/04/02 05:38:08;;;;;;;30.92;17.10;;;4.00;99.90;;;;;;5013920;28;20167;-77
2021/04/02 05:40:33;;;;;;;20.83;15.50;;;3.90;99.90;;;;;;5012704;28;20644;-77
2021/04/02 05:43:12;;;;;;;26.20;17.33;;;4.00;99.90;;;;;;5012804;28;20187;-78
2021/04/02 05:45:39;;;;;;;31.48;19.25;;;4.00;99.90;;;;;;5013581;28;20210;-77
2021/04/02 05:48:07;;;;;;;31.08;18.73;;;4.10;99.90;;;;;;5013780;28;20179;-78
2021/04/02 05:50:34;;;;;;;29.60;18.88;;;4.10;99.90;;;;;;5013718;28;20547;-77
2021/04/02 05:53:08;;;;;;;33.80;18.73;;;4.20;99.90;;;;;;5012469;28;20230;-77
2021/04/02 05:55:36;;;;;;;32.95;17.60;;;4.20;99.90;;;;;;5013386;28;20670;-77
2021/04/02 05:58:04;;;;;;;32.53;18.98;;;4.30;99.90;;;;;;5012606;28;20190;-77
2021/04/02 06:00:30;;;;;;;30.17;19.55;;;4.40;99.90;;;;;;5013798;28;20244;-77
2021/04/02 06:02:58;;;;;;;34.10;19.30;;;4.50;99.90;;;;;;5013731;28;20179;-77
2021/04/02 06:05:24;;;;;;;31.48;17.65;;;4.60;99.90;;;;;;5012143;28;20195;-77
2021/04/02 06:07:52;;;;;;;30.83;20.25;;;4.60;99.90;;;;;;5013602;28;20181;-77
2021/04/02 06:10:18;;;;;;;43.13;20.60;;;4.70;99.90;;;;;;5013478;28;20578;-78
2021/04/02 06:12:43;;;;;;;31.93;19.37;;;4.80;99.90;;;;;;5013463;28;20281;-76
2021/04/02 06:15:10;;;;;;;27.67;18.60;;;4.90;99.90;;;;;;5011517;28;20269;-75
2021/04/02 06:18:00;;;;;;;31.38;19.52;;;4.90;99.90;;;;;;5013576;28;20182;-76
2021/04/02 06:20:33;;;;;;;28.35;17.33;;;5.00;99.90;;;;;;5013307;28;20232;-77
2021/04/02 06:23:06;;;;;;;26.52;18.42;;;5.10;99.90;;;;;;5012075;28;20185;-77
2021/04/02 06:25:32;;;;;;;27.85;18.10;;;5.20;99.90;;;;;;5013093;28;20190;-77
2021/04/02 06:27:58;;;;;;;33.33;19.33;;;5.20;99.90;;;;;;5013412;28;20584;-77
2021/04/02 06:30:27;;;;;;;27.50;18.67;;;5.30;99.90;;;;;;5013285;28;20198;-78
2021/04/02 06:32:56;;;;;;;37.45;20.73;;;5.30;99.90;;;;;;5013049;28;20643;-77
2021/04/02 06:35:25;;;;;;;34.05;21.27;;;5.40;99.90;;;;;;4995177;28;20665;-77
2021/04/02 06:37:57;;;;;;;38.00;21.33;;;5.40;99.90;;;;;;5035921;28;20186;-77
2021/04/02 06:40:24;;;;;;;40.60;23.88;;;5.60;99.90;;;;;;5032377;28;20184;-77
2021/04/02 06:42:50;;;;;;;39.40;23.40;;;5.50;99.90;;;;;;5032633;28;20178;-77
2021/04/02 06:45:18;;;;;;;46.10;25.17;;;5.60;99.90;;;;;;5032762;28;20737;-77
2021/04/02 06:47:45;;;;;;;42.00;26.33;;;5.70;99.90;;;;;;5033031;28;20487;-77
2021/04/02 06:50:14;;;;;;;45.08;26.30;;;5.70;99.90;;;;;;5032653;28;20220;-77
2021/04/02 06:52:40;;;;;;;45.38;27.40;;;5.60;99.90;;;;;;5032694;28;20224;-77
2021/04/02 06:55:08;;;;;;;52.90;28.50;;;5.70;99.90;;;;;;5032347;28;20182;-77
2021/04/02 06:57:34;;;;;;;47.75;26.08;;;5.80;99.90;;;;;;5032902;28;20177;-77
2021/04/02 07:00:00;;;;;;;53.57;29.03;;;5.60;99.90;;;;;;5032789;28;20174;-77
2021/04/02 07:02:27;;;;;;;49.60;26.58;;;5.80;99.90;;;;;;5031448;28;20190;-77
2021/04/02 07:04:55;;;;;;;50.20;24.80;;;5.90;99.90;;;;;;5032235;28;20184;-77
2021/04/02 07:07:21;;;;;;;44.85;23.73;;;5.90;99.90;;;;;;5032842;28;20193;-77
2021/04/02 07:09:49;;;;;;;40.97;23.73;;;5.90;99.90;;;;;;5031636;28;20182;-77
2021/04/02 07:12:17;;;;;;;40.80;23.77;;;6.10;99.90;;;;;;5031424;28;20683;-77
2021/04/02 07:14:44;;;;;;;42.70;25.65;;;6.20;99.90;;;;;;5032191;28;20174;-78
2021/04/02 07:17:10;;;;;;;44.25;24.15;;;6.20;99.90;;;;;;5032445;28;20198;-77
2021/04/02 07:19:37;;;;;;;33.75;23.20;;;6.20;99.90;;;;;;5032585;28;20251;-77
2021/04/02 07:22:04;;;;;;;47.35;23.45;;;6.40;99.90;;;;;;5032584;28;20178;-78
2021/04/02 07:24:30;;;;;;;35.47;23.60;;;6.30;99.90;;;;;;5032368;28;20181;-80
2021/04/02 07:26:55;;;;;;;35.87;21.60;;;6.40;99.90;;;;;;5014561;28;20210;-77
2021/04/02 07:29:23;;;;;;;37.57;22.70;;;6.40;99.90;;;;;;5036194;28;20244;-77
2021/04/02 07:31:50;;;;;;;38.72;23.70;;;6.50;99.90;;;;;;5035950;28;20206;-76
2021/04/02 07:34:16;;;;;;;45.70;26.75;;;6.40;99.90;;;;;;5036370;28;20220;-78
2021/04/02 07:36:45;;;;;;;50.63;30.13;;;6.50;99.90;;;;;;5035697;28;20286;-77
2021/04/02 07:39:11;;;;;;;43.53;26.55;;;6.60;99.90;;;;;;5035722;28;20171;-77
2021/04/02 07:41:46;;;;;;;44.23;25.23;;;6.60;99.90;;;;;;5035929;28;20185;-77
2021/04/02 07:44:15;;;;;;;41.33;24.63;;;6.80;99.90;;;;;;5036019;28;20178;-77
2021/04/02 07:47:08;;;;;;;46.17;26.27;;;6.80;99.90;;;;;;5035611;28;20285;-77
2021/04/02 07:49:39;;;;;;;45.53;26.83;;;6.80;99.90;;;;;;5034525;28;20579;-77
2021/04/02 07:52:05;;;;;;;47.13;27.25;;;6.70;99.90;;;;;;5035803;28;20198;-77
2021/04/02 07:54:33;;;;;;;52.55;27.85;;;7.10;99.90;;;;;;5035478;28;20212;-78
2021/04/02 07:57:06;;;;;;;52.05;25.35;;;7.10;99.90;;;;;;5035866;28;20182;-77
2021/04/02 07:59:52;;;;;;;55.00;28.45;;;7.20;99.90;;;;;;5034361;28;20173;-77
2021/04/02 08:02:29;;;;;;;49.72;28.02;;;7.00;99.90;;;;;;5034086;28;20217;-77
2021/04/02 08:04:57;;;;;;;53.72;28.92;;;7.10;99.90;;;;;;5035209;28;20165;-78
2021/04/02 08:07:40;;;;;;;55.25;29.40;;;7.30;99.90;;;;;;5035512;28;20185;-78
2021/04/02 08:10:14;;;;;;;52.10;28.75;;;7.20;99.90;;;;;;5035577;28;20189;-77
2021/04/02 08:12:40;;;;;;;46.15;28.33;;;7.50;99.90;;;;;;5035567;28;20214;-77
2021/04/02 08:15:11;;;;;;;51.00;27.52;;;7.40;99.90;;;;;;5034886;28;20540;-77
2021/04/02 08:17:38;;;;;;;44.63;26.63;;;7.30;99.90;;;;;;5034546;28;20194;-77
2021/04/02 08:20:13;;;;;;;46.33;26.42;;;7.10;99.90;;;;;;5031317;28;20175;-77
2021/04/02 08:22:39;;;;;;;44.80;25.13;;;7.10;99.90;;;;;;5034829;28;20185;-80
2021/04/02 08:25:09;;;;;;;48.22;25.63;;;7.40;99.90;;;;;;5034787;28;20171;-80
2021/04/02 08:27:35;;;;;;;50.13;25.58;;;7.50;99.90;;;;;;5034900;28;20174;-80
2021/04/02 08:30:04;;;;;;;46.43;25.63;;;7.60;99.90;;;;;;5034997;28;20519;-80
2021/04/02 08:32:51;;;;;;;44.70;26.40;;;7.40;99.90;;;;;;5034917;28;20971;-78
2021/04/02 08:35:18;;;;;;;51.78;27.35;;;7.50;99.90;;;;;;5033368;28;20677;-79
2021/04/02 08:38:06;;;;;;;57.45;34.88;;;7.50;99.90;;;;;;5034859;28;20194;-79
2021/04/02 08:40:35;;;;;;;44.20;29.70;;;7.50;99.90;;;;;;5034968;28;20655;-76
2021/04/02 08:43:17;;;;;;;43.05;24.65;;;7.50;99.90;;;;;;5034733;28;20320;-75
2021/04/02 08:45:42;;;;;;;40.60;23.67;;;7.60;99.90;;;;;;5034260;28;20201;-76
2021/04/02 08:48:19;;;;;;;45.10;23.70;;;7.60;99.90;;;;;;5034686;28;20699;-76
2021/04/02 08:50:48;;;;;;;45.75;24.20;;;7.60;99.90;;;;;;5034867;28;20209;-76
2021/04/02 08:53:14;;;;;;;39.00;21.85;;;7.60;99.90;;;;;;5034520;28;20210;-76
2021/04/02 08:55:46;;;;;;;36.50;23.00;;;7.70;99.90;;;;;;5034135;28;20198;-76
2021/04/02 08:58:12;;;;;;;37.55;22.02;;;7.90;99.90;;;;;;5034795;28;20174;-76
2021/04/02 09:00:38;;;;;;;40.90;22.70;;;7.90;99.90;;;;;;5034557;28;20177;-77
2021/04/02 09:03:06;;;;;;;40.47;23.02;;;8.00;99.90;;;;;;5033212;28;20631;-77
2021/04/02 09:05:32;;;;;;;40.72;22.58;;;8.00;99.90;;;;;;5033918;28;20264;-77
2021/04/02 09:07:58;;;;;;;32.63;22.40;;;8.10;99.90;;;;;;5034120;28;20178;-77
2021/04/02 09:10:25;;;;;;;42.40;25.33;;;8.20;99.90;;;;;;5034484;28;20551;-77
2021/04/02 09:12:52;;;;;;;38.90;21.65;;;8.30;99.90;;;;;;5032875;28;20210;-76
2021/04/02 09:15:22;;;;;;;37.25;22.20;;;8.30;99.90;;;;;;5033845;28;20542;-77
2021/04/02 09:17:48;;;;;;;37.80;22.70;;;8.30;99.90;;;;;;5034085;28;20175;-77
2021/04/02 09:20:16;;;;;;;39.60;24.63;;;8.50;99.90;;;;;;5032898;28;20173;-77
2021/04/02 09:22:45;;;;;;;40.42;23.65;;;8.60;99.90;;;;;;5034077;28;20178;-77
2021/04/02 09:25:19;;;;;;;33.05;20.50;;;8.70;99.90;;;;;;5033692;28;20189;-77
2021/04/02 09:27:45;;;;;;;32.50;21.42;;;8.80;99.90;;;;;;5032485;28;20178;-76
2021/04/02 09:30:27;;;;;;;33.90;21.10;;;8.80;99.90;;;;;;5032715;28;20627;-77
2021/04/02 09:32:53;;;;;;;27.00;18.10;;;8.60;99.90;;;;;;5033736;28;20202;-77
2021/04/02 09:35:20;;;;;;;23.48;17.20;;;8.60;99.90;;;;;;5033458;28;20634;-77
2021/04/02 09:37:46;;;;;;;25.98;17.05;;;8.60;99.90;;;;;;5033921;28;20193;-78
2021/04/02 09:40:12;;;;;;;19.73;14.70;;;8.90;99.90;;;;;;5033572;28;20182;-78
2021/04/02 09:42:38;;;;;;;17.20;12.27;;;8.90;99.90;;;;;;5015877;28;20190;-77
2021/04/02 09:45:10;;;;;;;18.47;12.73;;;8.60;99.90;;;;;;5031737;28;20182;-77
2021/04/02 09:47:39;;;;;;;18.05;13.52;;;8.70;99.90;;;;;;5032535;28;20659;-77
2021/04/02 09:50:07;;;;;;;19.15;13.50;;;8.70;99.90;;;;;;5033089;28;20209;-77
2021/04/02 09:52:34;;;;;;;19.52;14.00;;;8.60;99.90;;;;;;5032147;28;20255;-77
2021/04/02 09:54:59;;;;;;;15.77;11.95;;;8.90;99.90;;;;;;5031747;28;20278;-77
2021/04/02 09:57:25;;;;;;;14.80;10.67;;;8.90;99.90;;;;;;5033492;28;20601;-77
2021/04/02 09:59:51;;;;;;;7.60;5.53;;;9.30;99.90;;;;;;5032133;28;20241;-77
2021/04/02 10:02:16;;;;;;;7.50;5.93;;;9.50;99.90;;;;;;5032537;28;20261;-77
2021/04/02 10:04:42;;;;;;;9.73;5.80;;;9.70;99.90;;;;;;5031868;28;20182;-77
2021/04/02 10:07:07;;;;;;;7.57;6.13;;;9.90;99.90;;;;;;5031943;28;20666;-77
2021/04/02 10:09:33;;;;;;;9.10;5.83;;;9.90;99.90;;;;;;5033575;28;20682;-77
2021/04/02 10:11:59;;;;;;;14.13;7.40;;;9.40;99.90;;;;;;5031945;28;20209;-77
2021/04/02 10:14:24;;;;;;;12.83;9.23;;;9.20;99.90;;;;;;5033031;28;20174;-78
2021/04/02 10:16:51;;;;;;;13.40;10.20;;;9.40;99.90;;;;;;5031757;28;20202;-78
2021/04/02 10:19:17;;;;;;;17.38;12.48;;;9.50;99.90;;;;;;5031812;28;20178;-77
2021/04/02 10:21:43;;;;;;;29.23;17.00;;;9.50;99.90;;;;;;5033033;28;20186;-77
2021/04/02 10:24:10;;;;;;;28.33;20.10;;;9.50;99.90;;;;;;5031731;28;20804;-77
2021/04/02 10:26:35;;;;;;;26.73;20.15;;;9.00;99.90;;;;;;5031219;28;20228;-76
2021/04/02 10:29:01;;;;;;;33.20;21.13;;;9.10;99.90;;;;;;5031783;28;20177;-77
2021/04/02 10:31:27;;;;;;;27.90;17.97;;;9.10;99.90;;;;;;5032830;28;20297;-77
2021/04/02 10:33:54;;;;;;;25.88;19.75;;;9.30;99.90;;;;;;5033009;28;20417;-77
2021/04/02 10:36:21;;;;;;;28.50;19.50;;;9.50;99.90;;;;;;5031218;28;20209;-77
2021/04/02 10:38:47;;;;;;;29.93;19.33;;;9.40;99.90;;;;;;5031564;28;20429;-77
2021/04/02 10:41:13;;;;;;;28.48;20.65;;;9.50;99.90;;;;;;5031688;28;20420;-77
2021/04/02 10:43:39;;;;;;;25.17;18.53;;;9.00;99.90;;;;;;5030645;28;20651;-77
2021/04/02 10:46:04;;;;;;;25.73;19.57;;;9.20;99.90;;;;;;5031275;28;20236;-77
2021/04/02 10:48:30;;;;;;;26.70;17.93;;;9.40;99.90;;;;;;5031394;28;20178;-77
2021/04/02 10:50:56;;;;;;;24.90;17.60;;;9.70;99.90;;;;;;5032783;28;20174;-77
2021/04/02 10:53:24;;;;;;;29.20;21.50;;;9.40;99.90;;;;;;5032708;28;20201;-77
2021/04/02 10:55:49;;;;;;;24.67;17.30;;;9.80;99.90;;;;;;5030876;28;20206;-77
2021/04/02 10:58:15;;;;;;;26.50;18.20;;;10.10;99.90;;;;;;5032771;28;20425;-77
2021/04/02 11:00:41;;;;;;;26.30;19.13;;;9.50;99.90;;;;;;5032759;28;20175;-77
2021/04/02 11:03:07;;;;;;;25.30;19.90;;;9.70;99.90;;;;;;5034780;28;20184;-77
2021/04/02 11:05:35;;;;;;;22.30;15.90;;;9.50;99.90;;;;;;5023935;28;20211;-77
2021/04/02 11:08:00;;;;;;;16.23;12.67;;;9.90;99.90;;;;;;5016806;28;20472;-77
2021/04/02 11:10:27;;;;;;;20.03;14.33;;;10.20;99.90;;;;;;5015591;28;20418;-77
2021/04/02 11:12:53;;;;;;;18.80;13.70;;;9.80;99.90;;;;;;5015236;28;20222;-77
2021/04/02 11:15:19;;;;;;;20.00;15.37;;;9.80;99.90;;;;;;5015039;28;20446;-76
2021/04/02 11:17:46;;;;;;;22.88;16.25;;;10.00;99.90;;;;;;5015553;28;20418;-77
2021/04/02 11:20:17;;;;;;;20.40;14.90;;;9.90;99.90;;;;;;5015668;28;20174;-77
2021/04/02 11:22:43;;;;;;;24.57;17.50;;;9.90;99.90;;;;;;5016509;28;20464;-77
2021/04/02 11:25:13;;;;;;;23.33;18.60;;;9.60;99.90;;;;;;5014695;28;20429;-77
2021/04/02 11:27:39;;;;;;;29.10;20.97;;;9.90;99.90;;;;;;5015181;28;20279;-77
2021/04/02 11:30:06;;;;;;;27.87;21.10;;;9.80;99.90;;;;;;5015026;28;20542;-77
2021/04/02 11:32:32;;;;;;;31.27;21.80;;;9.90;99.90;;;;;;5016160;28;20477;-77
2021/04/02 11:34:58;;;;;;;37.23;23.13;;;10.10;99.90;;;;;;5015808;28;20406;-77
2021/04/02 11:37:23;;;;;;;32.97;24.37;;;10.00;99.90;;;;;;5016164;28;20182;-77
2021/04/02 11:39:49;;;;;;;40.70;25.90;;;10.00;99.90;;;;;;5014933;28;20179;-77
2021/04/02 11:42:15;;;;;;;41.60;26.90;;;10.10;99.90;;;;;;5016099;28;20186;-77
2021/04/02 11:44:41;;;;;;;50.23;34.07;;;9.60;99.90;;;;;;5014534;28;20516;-77
2021/04/02 11:47:06;;;;;;;56.90;37.33;;;9.60;99.90;;;;;;5014841;28;20290;-76
2021/04/02 11:49:32;;;;;;;53.93;36.20;;;9.20;99.90;;;;;;5016000;28;20186;-76
2021/04/02 11:51:58;;;;;;;49.43;30.00;;;9.30;99.90;;;;;;5015936;28;20461;-76
2021/04/02 11:54:24;;;;;;;50.53;32.13;;;9.20;99.90;;;;;;5015771;28;20175;-77
2021/04/02 11:56:50;;;;;;;49.13;28.73;;;9.40;99.90;;;;;;5014532;28;20216;-77
2021/04/02 11:59:16;;;;;;;47.00;29.47;;;9.70;99.90;;;;;;5015768;28;21029;-77
2021/04/02 12:01:42;;;;;;;45.90;31.77;;;9.70;99.90;;;;;;5014903;28;20187;-77
2021/04/02 12:04:10;;;;;;;50.60;36.37;;;9.70;99.90;;;;;;5015789;28;20607;-77
2021/04/02 12:06:36;;;;;;;52.50;33.17;;;9.10;99.90;;;;;;5013933;28;20473;-77
2021/04/02 12:09:03;;;;;;;51.07;34.53;;;9.00;99.90;;;;;;5015737;28;20406;-77
2021/04/02 12:11:30;;;;;;;49.58;32.65;;;9.10;99.90;;;;;;5015391;28;20962;-77
2021/04/02 12:13:56;;;;;;;50.38;32.60;;;9.20;99.90;;;;;;5015038;28;20561;-77
2021/04/02 12:16:22;;;;;;;54.27;32.33;;;9.10;99.90;;;;;;5015041;28;20198;-77
2021/04/02 12:18:48;;;;;;;53.57;33.00;;;8.90;99.90;;;;;;4997904;28;20179;-77
2021/04/02 12:21:13;;;;;;;53.83;34.30;;;9.00;99.90;;;;;;5014135;28;20485;-77
2021/04/02 12:23:39;;;;;;;44.43;29.50;;;8.80;99.90;;;;;;5015405;28;20639;-77
2021/04/02 12:26:05;;;;;;;33.97;20.50;;;8.80;99.90;;;;;;5014939;28;20203;-77
2021/04/02 12:28:32;;;;;;;32.03;19.63;;;8.50;99.90;;;;;;5014116;28;20933;-77
2021/04/02 12:30:59;;;;;;;34.03;15.93;;;8.00;99.90;;;;;;5015054;28;20175;-77
2021/04/02 12:33:25;;;;;;;24.13;13.15;;;7.90;99.90;;;;;;5013843;28;20289;-78
2021/04/02 12:35:50;;;;;;;28.73;17.20;;;7.60;99.90;;;;;;5013463;28;20306;-77
2021/04/02 12:38:16;;;;;;;36.20;21.83;;;7.90;99.90;;;;;;5013820;28;20186;-77
2021/04/02 12:40:41;;;;;;;28.40;15.30;;;8.10;99.90;;;;;;5015025;28;20269;-77
2021/04/02 12:43:07;;;;;;;18.70;13.80;;;8.00;99.90;;;;;;5014977;28;20647;-77